sensor_id;sensor_type;location;lat;lon;timestamp;P1;durP1;ratioP1;P2;durP2;ratioP2
21890;SDS011;11110;52.386;16.940;2023-04-10T00:00:03;33.17;;;16.67;;
21890;SDS011;11110;52.386;16.940;2023-04-10T00:02:53;36.30;;;17.43;;
21890;SDS011;11110;52.386;16.940;2023-04-10T00:05:22;35.10;;;17.17;;
21890;SDS011;11110;52.386;16.940;2023-04-10T00:07:52;35.50;;;17.13;;
21890;SDS011;11110;52.386;16.940;2023-04-10T00:10:20;31.27;;;16.80;;
21890;SDS011;11110;52.386;16.940;2023-04-10T00:12:52;34.17;;;16.60;;
21890;SDS011;11110;52.386;16.940;2023-04-10T00:15:22;33.40;;;15.60;;
21890;SDS011;11110;52.386;16.940;2023-04-10T00:17:51;35.57;;;17.50;;
21890;SDS011;11110;52.386;16.940;2023-04-10T00:20:21;31.43;;;16.93;;
21890;SDS011;11110;52.386;16.940;2023-04-10T00:22:53;39.07;;;17.53;;
21890;SDS011;11110;52.386;16.940;2023-04-10T00:25:22;37.43;;;18.03;;
21890;SDS011;11110;52.386;16.940;2023-04-10T00:27:50;34.67;;;16.80;;
21890;SDS011;11110;52.386;16.940;2023-04-10T00:30:19;36.80;;;17.50;;
21890;SDS011;11110;52.386;16.940;2023-04-10T00:32:48;34.00;;;17.40;;
21890;SDS011;11110;52.386;16.940;2023-04-10T00:35:17;37.23;;;17.07;;
21890;SDS011;11110;52.386;16.940;2023-04-10T00:37:45;39.47;;;17.30;;
21890;SDS011;11110;52.386;16.940;2023-04-10T00:40:17;36.77;;;17.80;;
21890;SDS011;11110;52.386;16.940;2023-04-10T00:42:46;35.13;;;17.50;;
21890;SDS011;11110;52.386;16.940;2023-04-10T00:45:14;35.40;;;18.13;;
21890;SDS011;11110;52.386;16.940;2023-04-10T00:47:43;36.50;;;18.00;;
21890;SDS011;11110;52.386;16.940;2023-04-10T00:50:11;35.57;;;17.10;;
21890;SDS011;11110;52.386;16.940;2023-04-10T00:52:40;39.67;;;17.23;;
21890;SDS011;11110;52.386;16.940;2023-04-10T00:55:08;35.37;;;17.47;;
21890;SDS011;11110;52.386;16.940;2023-04-10T00:57:39;34.40;;;16.50;;
21890;SDS011;11110;52.386;16.940;2023-04-10T01:00:12;35.90;;;17.20;;
21890;SDS011;11110;52.386;16.940;2023-04-10T01:02:42;32.17;;;16.77;;
21890;SDS011;11110;52.386;16.940;2023-04-10T01:05:12;32.63;;;16.50;;
21890;SDS011;11110;52.386;16.940;2023-04-10T01:07:45;35.43;;;17.57;;
21890;SDS011;11110;52.386;16.940;2023-04-10T01:10:24;34.47;;;17.80;;
21890;SDS011;11110;52.386;16.940;2023-04-10T01:13:01;34.87;;;16.70;;
21890;SDS011;11110;52.386;16.940;2023-04-10T01:15:40;30.33;;;16.30;;
21890;SDS011;11110;52.386;16.940;2023-04-10T01:18:15;32.77;;;16.23;;
21890;SDS011;11110;52.386;16.940;2023-04-10T01:20:47;34.97;;;16.30;;
21890;SDS011;11110;52.386;16.940;2023-04-10T01:26:26;30.73;;;15.33;;
21890;SDS011;11110;52.386;16.940;2023-04-10T01:29:09;34.53;;;16.50;;
21890;SDS011;11110;52.386;16.940;2023-04-10T01:31:43;35.40;;;16.47;;
21890;SDS011;11110;52.386;16.940;2023-04-10T01:34:20;33.13;;;16.00;;
21890;SDS011;11110;52.386;16.940;2023-04-10T01:36:52;31.47;;;16.07;;
21890;SDS011;11110;52.386;16.940;2023-04-10T01:39:24;30.20;;;15.53;;
21890;SDS011;11110;52.386;16.940;2023-04-10T01:41:56;30.27;;;15.07;;
21890;SDS011;11110;52.386;16.940;2023-04-10T01:44:37;28.57;;;14.60;;
21890;SDS011;11110;52.386;16.940;2023-04-10T01:47:09;35.20;;;16.83;;
21890;SDS011;11110;52.386;16.940;2023-04-10T01:49:41;33.60;;;16.67;;
21890;SDS011;11110;52.386;16.940;2023-04-10T01:52:13;31.50;;;16.40;;
21890;SDS011;11110;52.386;16.940;2023-04-10T01:54:47;39.00;;;18.47;;
21890;SDS011;11110;52.386;16.940;2023-04-10T01:57:22;35.20;;;17.73;;
21890;SDS011;11110;52.386;16.940;2023-04-10T01:59:56;37.33;;;18.53;;
21890;SDS011;11110;52.386;16.940;2023-04-10T02:02:25;36.17;;;17.13;;
21890;SDS011;11110;52.386;16.940;2023-04-10T02:04:59;36.17;;;17.93;;
21890;SDS011;11110;52.386;16.940;2023-04-10T02:07:28;37.40;;;17.17;;
21890;SDS011;11110;52.386;16.940;2023-04-10T02:10:03;34.20;;;17.37;;
21890;SDS011;11110;52.386;16.940;2023-04-10T02:12:38;38.43;;;18.27;;
21890;SDS011;11110;52.386;16.940;2023-04-10T02:15:15;37.70;;;19.37;;
21890;SDS011;11110;52.386;16.940;2023-04-10T02:17:45;37.53;;;18.23;;
21890;SDS011;11110;52.386;16.940;2023-04-10T02:20:15;35.37;;;17.70;;
21890;SDS011;11110;52.386;16.940;2023-04-10T02:22:45;37.93;;;18.73;;
21890;SDS011;11110;52.386;16.940;2023-04-10T02:25:15;35.77;;;17.80;;
21890;SDS011;11110;52.386;16.940;2023-04-10T02:27:43;33.00;;;16.67;;
21890;SDS011;11110;52.386;16.940;2023-04-10T02:30:14;33.20;;;16.93;;
21890;SDS011;11110;52.386;16.940;2023-04-10T02:32:43;32.73;;;17.93;;
21890;SDS011;11110;52.386;16.940;2023-04-10T02:35:12;32.50;;;16.70;;
21890;SDS011;11110;52.386;16.940;2023-04-10T02:37:40;36.57;;;18.30;;
21890;SDS011;11110;52.386;16.940;2023-04-10T02:40:10;32.60;;;16.37;;
21890;SDS011;11110;52.386;16.940;2023-04-10T02:42:59;34.73;;;15.97;;
21890;SDS011;11110;52.386;16.940;2023-04-10T02:45:30;30.97;;;15.47;;
21890;SDS011;11110;52.386;16.940;2023-04-10T02:47:59;33.90;;;16.77;;
21890;SDS011;11110;52.386;16.940;2023-04-10T02:50:28;33.07;;;16.60;;
21890;SDS011;11110;52.386;16.940;2023-04-10T02:52:58;33.27;;;16.20;;
21890;SDS011;11110;52.386;16.940;2023-04-10T02:55:27;35.73;;;17.87;;
21890;SDS011;11110;52.386;16.940;2023-04-10T02:57:56;39.93;;;18.70;;
21890;SDS011;11110;52.386;16.940;2023-04-10T03:00:24;37.37;;;17.50;;
21890;SDS011;11110;52.386;16.940;2023-04-10T03:03:08;38.07;;;18.23;;
21890;SDS011;11110;52.386;16.940;2023-04-10T03:05:43;34.50;;;16.47;;
21890;SDS011;11110;52.386;16.940;2023-04-10T03:08:13;31.50;;;16.70;;
21890;SDS011;11110;52.386;16.940;2023-04-10T03:10:42;36.27;;;17.17;;
21890;SDS011;11110;52.386;16.940;2023-04-10T03:13:11;34.97;;;16.80;;
21890;SDS011;11110;52.386;16.940;2023-04-10T03:15:40;35.63;;;17.43;;
21890;SDS011;11110;52.386;16.940;2023-04-10T03:18:10;31.47;;;15.97;;
21890;SDS011;11110;52.386;16.940;2023-04-10T03:20:41;30.03;;;15.80;;
21890;SDS011;11110;52.386;16.940;2023-04-10T03:23:10;29.30;;;15.13;;
21890;SDS011;11110;52.386;16.940;2023-04-10T03:25:40;32.20;;;15.80;;
21890;SDS011;11110;52.386;16.940;2023-04-10T03:28:09;31.40;;;15.47;;
21890;SDS011;11110;52.386;16.940;2023-04-10T03:30:38;33.77;;;16.17;;
21890;SDS011;11110;52.386;16.940;2023-04-10T03:33:07;33.43;;;16.60;;
21890;SDS011;11110;52.386;16.940;2023-04-10T03:35:37;31.77;;;16.00;;
21890;SDS011;11110;52.386;16.940;2023-04-10T03:38:06;33.97;;;16.07;;
21890;SDS011;11110;52.386;16.940;2023-04-10T03:40:35;40.67;;;17.23;;
21890;SDS011;11110;52.386;16.940;2023-04-10T03:43:06;42.43;;;18.20;;
21890;SDS011;11110;52.386;16.940;2023-04-10T03:45:35;37.37;;;16.47;;
21890;SDS011;11110;52.386;16.940;2023-04-10T03:48:04;38.20;;;16.67;;
21890;SDS011;11110;52.386;16.940;2023-04-10T03:50:42;29.60;;;15.27;;
21890;SDS011;11110;52.386;16.940;2023-04-10T03:53:11;31.03;;;15.87;;
21890;SDS011;11110;52.386;16.940;2023-04-10T03:55:40;34.33;;;16.47;;
21890;SDS011;11110;52.386;16.940;2023-04-10T03:58:08;34.43;;;16.80;;
21890;SDS011;11110;52.386;16.940;2023-04-10T04:00:38;31.27;;;16.43;;
21890;SDS011;11110;52.386;16.940;2023-04-10T04:03:15;28.73;;;15.03;;
21890;SDS011;11110;52.386;16.940;2023-04-10T04:06:12;37.57;;;17.27;;
21890;SDS011;11110;52.386;16.940;2023-04-10T04:08:53;32.00;;;15.47;;
21890;SDS011;11110;52.386;16.940;2023-04-10T04:11:56;31.87;;;15.77;;
21890;SDS011;11110;52.386;16.940;2023-04-10T04:14:34;30.90;;;15.77;;
21890;SDS011;11110;52.386;16.940;2023-04-10T04:17:22;37.80;;;17.07;;
21890;SDS011;11110;52.386;16.940;2023-04-10T04:20:03;35.47;;;15.17;;
21890;SDS011;11110;52.386;16.940;2023-04-10T04:22:52;34.33;;;14.83;;
21890;SDS011;11110;52.386;16.940;2023-04-10T04:25:53;36.07;;;15.60;;
21890;SDS011;11110;52.386;16.940;2023-04-10T04:28:35;38.60;;;15.77;;
21890;SDS011;11110;52.386;16.940;2023-04-10T04:31:33;36.20;;;16.30;;
21890;SDS011;11110;52.386;16.940;2023-04-10T04:34:40;32.77;;;15.03;;
21890;SDS011;11110;52.386;16.940;2023-04-10T04:37:22;35.43;;;15.33;;
21890;SDS011;11110;52.386;16.940;2023-04-10T04:40:12;34.60;;;15.70;;
21890;SDS011;11110;52.386;16.940;2023-04-10T04:43:13;35.27;;;16.33;;
21890;SDS011;11110;52.386;16.940;2023-04-10T04:45:58;37.63;;;17.13;;
21890;SDS011;11110;52.386;16.940;2023-04-10T04:48:46;35.07;;;17.27;;
21890;SDS011;11110;52.386;16.940;2023-04-10T04:51:23;38.40;;;17.87;;
21890;SDS011;11110;52.386;16.940;2023-04-10T04:54:14;45.07;;;17.87;;
21890;SDS011;11110;52.386;16.940;2023-04-10T04:56:50;40.33;;;17.33;;
21890;SDS011;11110;52.386;16.940;2023-04-10T04:59:39;35.83;;;16.17;;
21890;SDS011;11110;52.386;16.940;2023-04-10T05:02:28;42.70;;;18.67;;
21890;SDS011;11110;52.386;16.940;2023-04-10T05:05:06;39.00;;;18.13;;
21890;SDS011;11110;52.386;16.940;2023-04-10T05:07:43;42.07;;;19.27;;
21890;SDS011;11110;52.386;16.940;2023-04-10T05:10:22;42.37;;;18.97;;
21890;SDS011;11110;52.386;16.940;2023-04-10T05:13:22;44.93;;;18.77;;
21890;SDS011;11110;52.386;16.940;2023-04-10T05:16:10;41.63;;;19.60;;
21890;SDS011;11110;52.386;16.940;2023-04-10T05:18:56;39.17;;;17.07;;
21890;SDS011;11110;52.386;16.940;2023-04-10T05:21:40;38.83;;;17.67;;
21890;SDS011;11110;52.386;16.940;2023-04-10T05:24:21;37.13;;;16.67;;
21890;SDS011;11110;52.386;16.940;2023-04-10T05:27:11;36.57;;;16.30;;
21890;SDS011;11110;52.386;16.940;2023-04-10T05:30:07;35.13;;;15.47;;
21890;SDS011;11110;52.386;16.940;2023-04-10T05:32:37;40.03;;;18.37;;
21890;SDS011;11110;52.386;16.940;2023-04-10T05:35:17;35.17;;;16.67;;
21890;SDS011;11110;52.386;16.940;2023-04-10T05:37:54;50.50;;;22.90;;
21890;SDS011;11110;52.386;16.940;2023-04-10T05:40:43;44.10;;;23.33;;
21890;SDS011;11110;52.386;16.940;2023-04-10T05:43:30;51.73;;;24.70;;
21890;SDS011;11110;52.386;16.940;2023-04-10T05:46:13;39.27;;;19.37;;
21890;SDS011;11110;52.386;16.940;2023-04-10T05:48:50;45.90;;;21.33;;
21890;SDS011;11110;52.386;16.940;2023-04-10T05:51:42;42.37;;;22.00;;
21890;SDS011;11110;52.386;16.940;2023-04-10T05:54:36;41.93;;;21.20;;
21890;SDS011;11110;52.386;16.940;2023-04-10T05:57:16;36.60;;;18.80;;
21890;SDS011;11110;52.386;16.940;2023-04-10T06:00:08;35.43;;;17.80;;
21890;SDS011;11110;52.386;16.940;2023-04-10T06:02:48;36.00;;;18.57;;
21890;SDS011;11110;52.386;16.940;2023-04-10T06:05:23;30.23;;;18.40;;
21890;SDS011;11110;52.386;16.940;2023-04-10T06:07:58;38.40;;;20.17;;
21890;SDS011;11110;52.386;16.940;2023-04-10T06:10:27;40.27;;;20.00;;
21890;SDS011;11110;52.386;16.940;2023-04-10T06:12:56;38.10;;;19.33;;
21890;SDS011;11110;52.386;16.940;2023-04-10T06:15:25;36.90;;;18.60;;
21890;SDS011;11110;52.386;16.940;2023-04-10T06:17:56;35.33;;;17.33;;
21890;SDS011;11110;52.386;16.940;2023-04-10T06:20:24;29.67;;;14.80;;
21890;SDS011;11110;52.386;16.940;2023-04-10T06:22:53;31.80;;;15.40;;
21890;SDS011;11110;52.386;16.940;2023-04-10T06:25:21;28.90;;;14.77;;
21890;SDS011;11110;52.386;16.940;2023-04-10T06:27:50;33.87;;;15.80;;
21890;SDS011;11110;52.386;16.940;2023-04-10T06:30:19;32.40;;;16.27;;
21890;SDS011;11110;52.386;16.940;2023-04-10T06:32:48;30.50;;;16.63;;
21890;SDS011;11110;52.386;16.940;2023-04-10T06:35:20;31.97;;;15.60;;
21890;SDS011;11110;52.386;16.940;2023-04-10T06:37:48;36.60;;;18.53;;
21890;SDS011;11110;52.386;16.940;2023-04-10T06:40:17;36.77;;;19.97;;
21890;SDS011;11110;52.386;16.940;2023-04-10T06:42:45;33.40;;;16.90;;
21890;SDS011;11110;52.386;16.940;2023-04-10T06:45:26;27.03;;;13.63;;
21890;SDS011;11110;52.386;16.940;2023-04-10T06:47:55;27.97;;;14.13;;
21890;SDS011;11110;52.386;16.940;2023-04-10T06:50:25;26.00;;;13.30;;
21890;SDS011;11110;52.386;16.940;2023-04-10T06:52:54;27.53;;;13.77;;
21890;SDS011;11110;52.386;16.940;2023-04-10T06:55:25;25.10;;;13.80;;
21890;SDS011;11110;52.386;16.940;2023-04-10T06:57:54;25.03;;;13.93;;
21890;SDS011;11110;52.386;16.940;2023-04-10T07:00:23;27.33;;;13.17;;
21890;SDS011;11110;52.386;16.940;2023-04-10T07:02:52;29.23;;;14.90;;
21890;SDS011;11110;52.386;16.940;2023-04-10T07:05:21;27.97;;;13.23;;
21890;SDS011;11110;52.386;16.940;2023-04-10T07:07:51;28.00;;;13.90;;
21890;SDS011;11110;52.386;16.940;2023-04-10T07:10:19;28.90;;;13.13;;
21890;SDS011;11110;52.386;16.940;2023-04-10T07:12:48;28.03;;;13.37;;
21890;SDS011;11110;52.386;16.940;2023-04-10T07:15:17;27.47;;;14.37;;
21890;SDS011;11110;52.386;16.940;2023-04-10T07:17:46;26.37;;;13.17;;
21890;SDS011;11110;52.386;16.940;2023-04-10T07:20:15;26.93;;;13.77;;
21890;SDS011;11110;52.386;16.940;2023-04-10T07:22:44;29.83;;;13.70;;
21890;SDS011;11110;52.386;16.940;2023-04-10T07:25:13;25.90;;;13.60;;
21890;SDS011;11110;52.386;16.940;2023-04-10T07:27:44;26.80;;;13.77;;
21890;SDS011;11110;52.386;16.940;2023-04-10T07:30:12;25.03;;;13.73;;
21890;SDS011;11110;52.386;16.940;2023-04-10T07:32:41;29.70;;;15.43;;
21890;SDS011;11110;52.386;16.940;2023-04-10T07:35:10;39.37;;;20.13;;
21890;SDS011;11110;52.386;16.940;2023-04-10T07:37:39;39.90;;;20.13;;
21890;SDS011;11110;52.386;16.940;2023-04-10T07:40:09;45.97;;;22.93;;
21890;SDS011;11110;52.386;16.940;2023-04-10T07:42:39;56.07;;;27.50;;
21890;SDS011;11110;52.386;16.940;2023-04-10T07:45:08;44.13;;;22.80;;
21890;SDS011;11110;52.386;16.940;2023-04-10T07:47:38;37.60;;;20.03;;
21890;SDS011;11110;52.386;16.940;2023-04-10T07:50:06;36.00;;;18.53;;
21890;SDS011;11110;52.386;16.940;2023-04-10T07:52:36;41.50;;;20.90;;
21890;SDS011;11110;52.386;16.940;2023-04-10T07:55:04;38.77;;;21.47;;
21890;SDS011;11110;52.386;16.940;2023-04-10T07:57:34;39.67;;;19.43;;
21890;SDS011;11110;52.386;16.940;2023-04-10T08:00:04;36.37;;;18.67;;
21890;SDS011;11110;52.386;16.940;2023-04-10T08:02:41;43.03;;;20.67;;
21890;SDS011;11110;52.386;16.940;2023-04-10T08:05:10;42.23;;;19.97;;
21890;SDS011;11110;52.386;16.940;2023-04-10T08:07:39;35.67;;;18.67;;
21890;SDS011;11110;52.386;16.940;2023-04-10T08:10:08;39.30;;;19.40;;
21890;SDS011;11110;52.386;16.940;2023-04-10T08:12:37;47.60;;;21.40;;
21890;SDS011;11110;52.386;16.940;2023-04-10T08:15:07;41.63;;;20.77;;
21890;SDS011;11110;52.386;16.940;2023-04-10T08:17:36;39.90;;;20.10;;
21890;SDS011;11110;52.386;16.940;2023-04-10T08:20:05;48.63;;;22.67;;
21890;SDS011;11110;52.386;16.940;2023-04-10T08:22:35;41.40;;;19.97;;
21890;SDS011;11110;52.386;16.940;2023-04-10T08:25:03;44.23;;;21.07;;
21890;SDS011;11110;52.386;16.940;2023-04-10T08:27:32;44.57;;;22.00;;
21890;SDS011;11110;52.386;16.940;2023-04-10T08:30:01;49.40;;;21.83;;
21890;SDS011;11110;52.386;16.940;2023-04-10T08:32:31;43.27;;;21.13;;
21890;SDS011;11110;52.386;16.940;2023-04-10T08:34:59;47.57;;;23.87;;
21890;SDS011;11110;52.386;16.940;2023-04-10T08:37:28;44.90;;;21.73;;
21890;SDS011;11110;52.386;16.940;2023-04-10T08:39:57;49.77;;;23.10;;
21890;SDS011;11110;52.386;16.940;2023-04-10T08:42:25;58.63;;;28.60;;
21890;SDS011;11110;52.386;16.940;2023-04-10T08:44:54;48.80;;;25.33;;
21890;SDS011;11110;52.386;16.940;2023-04-10T08:47:22;47.33;;;23.47;;
21890;SDS011;11110;52.386;16.940;2023-04-10T08:49:56;53.87;;;22.83;;
21890;SDS011;11110;52.386;16.940;2023-04-10T08:52:29;46.60;;;22.37;;
21890;SDS011;11110;52.386;16.940;2023-04-10T08:55:01;45.93;;;23.47;;
21890;SDS011;11110;52.386;16.940;2023-04-10T08:57:35;49.87;;;23.17;;
21890;SDS011;11110;52.386;16.940;2023-04-10T09:00:08;44.93;;;21.97;;
21890;SDS011;11110;52.386;16.940;2023-04-10T09:02:42;51.70;;;24.50;;
21890;SDS011;11110;52.386;16.940;2023-04-10T09:05:13;57.43;;;25.30;;
21890;SDS011;11110;52.386;16.940;2023-04-10T09:07:42;41.37;;;20.23;;
21890;SDS011;11110;52.386;16.940;2023-04-10T09:10:10;40.77;;;21.33;;
21890;SDS011;11110;52.386;16.940;2023-04-10T09:12:42;48.67;;;24.83;;
21890;SDS011;11110;52.386;16.940;2023-04-10T09:15:11;44.70;;;23.63;;
21890;SDS011;11110;52.386;16.940;2023-04-10T09:17:53;54.57;;;24.30;;
21890;SDS011;11110;52.386;16.940;2023-04-10T09:20:29;44.37;;;21.20;;
21890;SDS011;11110;52.386;16.940;2023-04-10T09:22:59;42.33;;;22.27;;
21890;SDS011;11110;52.386;16.940;2023-04-10T09:25:31;54.20;;;27.50;;
21890;SDS011;11110;52.386;16.940;2023-04-10T09:28:02;46.50;;;25.73;;
21890;SDS011;11110;52.386;16.940;2023-04-10T09:30:35;41.23;;;21.50;;
21890;SDS011;11110;52.386;16.940;2023-04-10T09:35:51;38.83;;;20.57;;
21890;SDS011;11110;52.386;16.940;2023-04-10T09:38:20;38.80;;;19.93;;
21890;SDS011;11110;52.386;16.940;2023-04-10T09:40:48;41.17;;;22.40;;
21890;SDS011;11110;52.386;16.940;2023-04-10T09:43:21;45.63;;;23.75;;
21890;SDS011;11110;52.386;16.940;2023-04-10T09:45:51;48.78;;;24.05;;
21890;SDS011;11110;52.386;16.940;2023-04-10T09:48:21;50.03;;;25.20;;
21890;SDS011;11110;52.386;16.940;2023-04-10T09:50:51;47.53;;;23.00;;
21890;SDS011;11110;52.386;16.940;2023-04-10T09:53:20;42.33;;;23.35;;
21890;SDS011;11110;52.386;16.940;2023-04-10T09:55:48;44.03;;;23.77;;
21890;SDS011;11110;52.386;16.940;2023-04-10T09:58:17;46.00;;;22.77;;
21890;SDS011;11110;52.386;16.940;2023-04-10T10:00:46;44.78;;;23.80;;
21890;SDS011;11110;52.386;16.940;2023-04-10T10:03:17;46.33;;;24.75;;
21890;SDS011;11110;52.386;16.940;2023-04-10T10:05:48;45.25;;;23.60;;
21890;SDS011;11110;52.386;16.940;2023-04-10T10:08:20;42.15;;;23.15;;
21890;SDS011;11110;52.386;16.940;2023-04-10T10:10:49;46.45;;;24.02;;
21890;SDS011;11110;52.386;16.940;2023-04-10T10:13:21;44.42;;;23.85;;
21890;SDS011;11110;52.386;16.940;2023-04-10T10:15:53;41.45;;;21.83;;
21890;SDS011;11110;52.386;16.940;2023-04-10T10:18:31;36.42;;;21.00;;
21890;SDS011;11110;52.386;16.940;2023-04-10T10:21:10;43.28;;;23.10;;
21890;SDS011;11110;52.386;16.940;2023-04-10T10:23:43;42.55;;;22.27;;
21890;SDS011;11110;52.386;16.940;2023-04-10T10:26:12;38.50;;;22.88;;
21890;SDS011;11110;52.386;16.940;2023-04-10T10:28:43;42.38;;;22.23;;
21890;SDS011;11110;52.386;16.940;2023-04-10T10:31:13;44.30;;;22.73;;
21890;SDS011;11110;52.386;16.940;2023-04-10T10:33:44;44.03;;;22.70;;
21890;SDS011;11110;52.386;16.940;2023-04-10T10:36:13;42.38;;;22.15;;
21890;SDS011;11110;52.386;16.940;2023-04-10T10:38:47;35.67;;;19.00;;
21890;SDS011;11110;52.386;16.940;2023-04-10T10:41:24;44.45;;;22.85;;
21890;SDS011;11110;52.386;16.940;2023-04-10T10:43:59;39.40;;;22.10;;
21890;SDS011;11110;52.386;16.940;2023-04-10T10:46:35;39.40;;;21.42;;
21890;SDS011;11110;52.386;16.940;2023-04-10T10:49:08;38.58;;;19.10;;
21890;SDS011;11110;52.386;16.940;2023-04-10T10:51:41;28.65;;;16.38;;
21890;SDS011;11110;52.386;16.940;2023-04-10T10:57:34;24.63;;;15.07;;
21890;SDS011;11110;52.386;16.940;2023-04-10T11:00:10;28.10;;;16.17;;
21890;SDS011;11110;52.386;16.940;2023-04-10T11:02:39;25.60;;;15.30;;
21890;SDS011;11110;52.386;16.940;2023-04-10T11:05:08;27.33;;;14.10;;
21890;SDS011;11110;52.386;16.940;2023-04-10T11:13:34;25.23;;;14.27;;
21890;SDS011;11110;52.386;16.940;2023-04-10T11:16:05;22.02;;;13.32;;
21890;SDS011;11110;52.386;16.940;2023-04-10T11:27:37;25.15;;;13.80;;
21890;SDS011;11110;52.386;16.940;2023-04-10T11:33:00;29.50;;;17.70;;
21890;SDS011;11110;52.386;16.940;2023-04-10T11:35:30;35.08;;;19.50;;
21890;SDS011;11110;52.386;16.940;2023-04-10T11:40:56;35.17;;;19.27;;
21890;SDS011;11110;52.386;16.940;2023-04-10T11:43:30;29.67;;;17.70;;
21890;SDS011;11110;52.386;16.940;2023-04-10T11:46:01;34.28;;;18.75;;
21890;SDS011;11110;52.386;16.940;2023-04-10T11:48:35;34.75;;;18.95;;
21890;SDS011;11110;52.386;16.940;2023-04-10T11:51:07;30.15;;;17.42;;
21890;SDS011;11110;52.386;16.940;2023-04-10T11:53:36;36.45;;;20.20;;
21890;SDS011;11110;52.386;16.940;2023-04-10T11:56:13;37.50;;;18.83;;
21890;SDS011;11110;52.386;16.940;2023-04-10T11:58:43;25.52;;;16.13;;
21890;SDS011;11110;52.386;16.940;2023-04-10T12:01:13;31.23;;;18.75;;
21890;SDS011;11110;52.386;16.940;2023-04-10T12:03:42;29.80;;;17.90;;
21890;SDS011;11110;52.386;16.940;2023-04-10T12:06:12;27.40;;;17.13;;
21890;SDS011;11110;52.386;16.940;2023-04-10T12:08:42;30.30;;;18.95;;
21890;SDS011;11110;52.386;16.940;2023-04-10T12:11:13;36.65;;;20.60;;
21890;SDS011;11110;52.386;16.940;2023-04-10T12:13:44;26.70;;;16.30;;
21890;SDS011;11110;52.386;16.940;2023-04-10T12:16:14;24.23;;;14.95;;
21890;SDS011;11110;52.386;16.940;2023-04-10T12:18:43;22.48;;;14.95;;
21890;SDS011;11110;52.386;16.940;2023-04-10T12:21:12;25.42;;;15.68;;
21890;SDS011;11110;52.386;16.940;2023-04-10T12:23:41;26.92;;;16.05;;
21890;SDS011;11110;52.386;16.940;2023-04-10T12:26:10;18.45;;;12.32;;
21890;SDS011;11110;52.386;16.940;2023-04-10T12:28:41;26.58;;;16.25;;
21890;SDS011;11110;52.386;16.940;2023-04-10T12:31:19;23.08;;;14.63;;
21890;SDS011;11110;52.386;16.940;2023-04-10T12:33:54;22.73;;;12.82;;
21890;SDS011;11110;52.386;16.940;2023-04-10T12:36:24;20.88;;;12.95;;
21890;SDS011;11110;52.386;16.940;2023-04-10T12:38:55;21.88;;;13.93;;
21890;SDS011;11110;52.386;16.940;2023-04-10T12:41:24;20.33;;;13.50;;
21890;SDS011;11110;52.386;16.940;2023-04-10T12:44:05;23.08;;;12.90;;
21890;SDS011;11110;52.386;16.940;2023-04-10T12:46:36;24.98;;;15.98;;
21890;SDS011;11110;52.386;16.940;2023-04-10T12:49:09;17.42;;;10.95;;
21890;SDS011;11110;52.386;16.940;2023-04-10T12:51:45;19.27;;;12.50;;
21890;SDS011;11110;52.386;16.940;2023-04-10T12:54:25;16.08;;;9.77;;
21890;SDS011;11110;52.386;16.940;2023-04-10T12:56:55;16.27;;;10.27;;
21890;SDS011;11110;52.386;16.940;2023-04-10T12:59:24;18.98;;;11.07;;
21890;SDS011;11110;52.386;16.940;2023-04-10T13:01:54;18.90;;;11.05;;
21890;SDS011;11110;52.386;16.940;2023-04-10T13:04:23;14.00;;;8.85;;
21890;SDS011;11110;52.386;16.940;2023-04-10T13:06:52;12.77;;;8.75;;
21890;SDS011;11110;52.386;16.940;2023-04-10T13:09:21;18.15;;;11.20;;
21890;SDS011;11110;52.386;16.940;2023-04-10T13:11:50;19.58;;;10.35;;
21890;SDS011;11110;52.386;16.940;2023-04-10T13:14:19;14.93;;;9.55;;
21890;SDS011;11110;52.386;16.940;2023-04-10T13:16:48;18.83;;;11.95;;
21890;SDS011;11110;52.386;16.940;2023-04-10T13:19:18;17.58;;;10.38;;
21890;SDS011;11110;52.386;16.940;2023-04-10T13:21:46;20.27;;;13.65;;
21890;SDS011;11110;52.386;16.940;2023-04-10T13:24:16;17.05;;;10.95;;
21890;SDS011;11110;52.386;16.940;2023-04-10T13:26:45;17.30;;;11.25;;
21890;SDS011;11110;52.386;16.940;2023-04-10T13:29:14;15.48;;;10.38;;
21890;SDS011;11110;52.386;16.940;2023-04-10T13:31:42;17.73;;;12.05;;
21890;SDS011;11110;52.386;16.940;2023-04-10T13:34:11;18.55;;;11.70;;
21890;SDS011;11110;52.386;16.940;2023-04-10T13:36:41;17.55;;;10.80;;
21890;SDS011;11110;52.386;16.940;2023-04-10T13:39:10;14.68;;;10.75;;
21890;SDS011;11110;52.386;16.940;2023-04-10T13:41:38;15.27;;;10.20;;
21890;SDS011;11110;52.386;16.940;2023-04-10T13:44:07;15.43;;;10.15;;
21890;SDS011;11110;52.386;16.940;2023-04-10T13:46:35;16.30;;;10.57;;
21890;SDS011;11110;52.386;16.940;2023-04-10T13:49:04;15.98;;;11.18;;
21890;SDS011;11110;52.386;16.940;2023-04-10T13:51:32;15.70;;;9.68;;
21890;SDS011;11110;52.386;16.940;2023-04-10T13:54:02;16.48;;;10.23;;
21890;SDS011;11110;52.386;16.940;2023-04-10T13:56:31;15.88;;;10.10;;
21890;SDS011;11110;52.386;16.940;2023-04-10T13:58:59;13.65;;;9.65;;
21890;SDS011;11110;52.386;16.940;2023-04-10T14:01:28;16.10;;;10.32;;
21890;SDS011;11110;52.386;16.940;2023-04-10T14:03:56;13.27;;;9.63;;
21890;SDS011;11110;52.386;16.940;2023-04-10T14:06:25;13.30;;;8.70;;
21890;SDS011;11110;52.386;16.940;2023-04-10T14:08:54;12.15;;;8.90;;
21890;SDS011;11110;52.386;16.940;2023-04-10T14:11:24;14.90;;;9.68;;
21890;SDS011;11110;52.386;16.940;2023-04-10T14:13:52;14.10;;;9.40;;
21890;SDS011;11110;52.386;16.940;2023-04-10T14:16:21;17.60;;;10.88;;
21890;SDS011;11110;52.386;16.940;2023-04-10T14:18:49;18.13;;;11.52;;
21890;SDS011;11110;52.386;16.940;2023-04-10T14:21:18;14.57;;;10.10;;
21890;SDS011;11110;52.386;16.940;2023-04-10T14:23:47;13.57;;;9.77;;
21890;SDS011;11110;52.386;16.940;2023-04-10T14:26:15;14.38;;;9.85;;
21890;SDS011;11110;52.386;16.940;2023-04-10T14:28:45;13.73;;;9.32;;
21890;SDS011;11110;52.386;16.940;2023-04-10T14:31:14;15.82;;;11.40;;
21890;SDS011;11110;52.386;16.940;2023-04-10T14:33:43;15.15;;;10.50;;
21890;SDS011;11110;52.386;16.940;2023-04-10T14:36:12;16.27;;;10.77;;
21890;SDS011;11110;52.386;16.940;2023-04-10T14:38:40;15.38;;;9.25;;
21890;SDS011;11110;52.386;16.940;2023-04-10T14:41:08;11.48;;;8.15;;
21890;SDS011;11110;52.386;16.940;2023-04-10T14:43:37;14.52;;;8.73;;
21890;SDS011;11110;52.386;16.940;2023-04-10T14:46:07;13.30;;;8.02;;
21890;SDS011;11110;52.386;16.940;2023-04-10T14:48:36;12.23;;;8.20;;
21890;SDS011;11110;52.386;16.940;2023-04-10T14:51:06;14.05;;;8.60;;
21890;SDS011;11110;52.386;16.940;2023-04-10T14:53:38;11.93;;;8.23;;
21890;SDS011;11110;52.386;16.940;2023-04-10T14:56:10;10.93;;;7.75;;
21890;SDS011;11110;52.386;16.940;2023-04-10T14:58:39;12.00;;;7.10;;
21890;SDS011;11110;52.386;16.940;2023-04-10T15:01:10;10.98;;;7.00;;
21890;SDS011;11110;52.386;16.940;2023-04-10T15:03:39;10.93;;;7.40;;
21890;SDS011;11110;52.386;16.940;2023-04-10T15:06:08;11.48;;;7.40;;
21890;SDS011;11110;52.386;16.940;2023-04-10T15:08:36;10.38;;;8.02;;
21890;SDS011;11110;52.386;16.940;2023-04-10T15:11:05;14.52;;;8.23;;